logo meteoveneto

Diretta Meteo Cervia, Italiasabato 25 maggio ore 11:55

Mappa
Sereno 23 °C Sereno 24 Ore: T.min 14 T.max 23
Ponente Nord Km/h 9.3 Punto di rugiada: 13 °C Umidità: 53% Visibilità: 10 Km
Il sole sorge alle: 05:32 Il sole tramonta alle: 20:43
25 Maggio 2024 11:55 tempo osservato: Sereno Sereno 23 53 1017 vento: Nord N 9.3
25 Maggio 2024 10:55 tempo osservato: Sereno Sereno 20 56 1017 vento: Nord NO 11.1
25 Maggio 2024 09:55 tempo osservato: Sereno Sereno 20 52 1017 vento: Nord N 5.5
25 Maggio 2024 08:55 tempo osservato: Sereno Sereno 18 67 1017 vento: Nord N 1.8
25 Maggio 2024 07:55 tempo osservato: Sereno Sereno 16 77 1017 vento: Nord N 5.5
25 Maggio 2024 05:55 tempo osservato: Sereno Sereno 14 93 1017 vento: Nord N 3.7
25 Maggio 2024 04:55 tempo osservato: Sereno Sereno 14 93 1017 vento: Nord N 5.5
25 Maggio 2024 03:55 tempo osservato: Sereno Sereno 14 93 1017 vento: Nord N 1.8
25 Maggio 2024 02:55 tempo osservato: Sereno Sereno 15 87 1017 vento: Nord N 1.8
25 Maggio 2024 01:55 tempo osservato: Sereno Sereno 14 93 1017 vento: Nord N 3.7
25 Maggio 2024 00:55 tempo osservato: Sereno Sereno 15 87 1018 vento: Nord N 3.7
24 Maggio 2024 23:55 tempo osservato: Sereno Sereno 15 93 1018 vento: Nord S/SO 7.4
24 Maggio 2024 22:55 tempo osservato: Sereno Sereno 16 87 1018 vento: Nord N 5.5
24 Maggio 2024 21:55 tempo osservato: Sereno Sereno 19 77 1018 vento: Nord E/SE 14.8
24 Maggio 2024 20:55 tempo osservato: Sereno Sereno 19 82 1017 vento: Nord E 13
24 Maggio 2024 19:55 tempo osservato: Sereno Sereno 21 64 1018 vento: Nord E 13
24 Maggio 2024 18:55 tempo osservato: Sereno Sereno 22 60 1017 vento: Nord E 16.7
24 Maggio 2024 17:55 tempo osservato: Sereno Sereno 22 60 1018 vento: Nord E/SE 18.5
24 Maggio 2024 16:55 tempo osservato: Sereno Sereno 23 53 1018 vento: Nord E 18.5
24 Maggio 2024 15:55 tempo osservato: Sereno Sereno 23 49 1018 vento: Nord E 16.7
24 Maggio 2024 14:55 tempo osservato: Sereno Sereno 23 49 1018 vento: Nord NE 14.8
24 Maggio 2024 13:55 tempo osservato: Sereno Sereno 22 56 1019 vento: Nord E/NE 14.8